TKJ4188 LTAC-LTFG
Flight info
| Callsign | TKJ4188 |
|---|---|
| Flight time | 0h 54m |
| Altitude | 31000 |
| Route | TELVO UM856 ERKUK UA28 MUT UT339 ELROP |
| Aircraft | A21N/M-SDE3FGHIRWY/LB1 |
Departure
| Time | 2026-05-04 20:12 |
|---|---|
| Airport | Esenboğa International Airport (LTAC) |
Arrival
| Time | 2026-05-04 21:06 |
|---|---|
| Airport | Gazipaşa-Alanya Airport (LTFG) |
| Time | Latitude | Longitude | Altitude | Speed | Heading |
|---|---|---|---|---|---|
| 2026-05-04 20:01 | 40.11556 | 32.99028 | 3118 ft | 0 kts | 139° |
| 2026-05-04 20:04 | 40.11565 | 32.99018 | 3120 ft | 2 kts | 139° |
| 2026-05-04 20:04 | 40.11576 | 32.99005 | 3120 ft | 2 kts | 140° |
| 2026-05-04 20:04 | 40.11588 | 32.98992 | 3120 ft | 2 kts | 140° |
| 2026-05-04 20:05 | 40.11596 | 32.98976 | 3120 ft | 2 kts | 99° |
| 2026-05-04 20:05 | 40.11595 | 32.98956 | 3119 ft | 2 kts | 62° |
| 2026-05-04 20:05 | 40.11585 | 32.98942 | 3119 ft | 2 kts | 37° |
| 2026-05-04 20:05 | 40.11577 | 32.98933 | 3119 ft | 0 kts | 46° |
| 2026-05-04 20:06 | 40.11576 | 32.98931 | 3119 ft | 0 kts | 45° |
| 2026-05-04 20:08 | 40.11577 | 32.98933 | 3118 ft | 1 kts | 45° |
| 2026-05-04 20:09 | 40.11599 | 32.98949 | 3119 ft | 6 kts | 9° |
| 2026-05-04 20:09 | 40.11648 | 32.98905 | 3118 ft | 11 kts | 305° |
| 2026-05-04 20:09 | 40.11676 | 32.98853 | 3117 ft | 1 kts | 304° |
| 2026-05-04 20:09 | 40.11678 | 32.98849 | 3117 ft | 2 kts | 307° |
| 2026-05-04 20:10 | 40.11692 | 32.98827 | 3116 ft | 4 kts | 309° |
| 2026-05-04 20:10 | 40.11715 | 32.98790 | 3116 ft | 6 kts | 307° |
| 2026-05-04 20:10 | 40.11746 | 32.98735 | 3114 ft | 8 kts | 306° |
| 2026-05-04 20:10 | 40.11792 | 32.98652 | 3113 ft | 14 kts | 306° |
| 2026-05-04 20:11 | 40.11857 | 32.98538 | 3111 ft | 15 kts | 306° |
| 2026-05-04 20:11 | 40.11902 | 32.98490 | 3110 ft | 7 kts | 12° |
| 2026-05-04 20:11 | 40.11949 | 32.98528 | 3110 ft | 12 kts | 36° |
| 2026-05-04 20:11 | 40.12225 | 32.98789 | 3112 ft | 84 kts | 37° |
| 2026-05-04 20:12 | 40.12877 | 32.99412 | 3118 ft | 145 kts | 36° |
| 2026-05-04 20:12 | 40.13851 | 33.00332 | 3183 ft | 190 kts | 34° |
| 2026-05-04 20:12 | 40.14901 | 33.01389 | 3792 ft | 193 kts | 39° |
| 2026-05-04 20:12 | 40.15902 | 33.02538 | 4562 ft | 194 kts | 39° |
| 2026-05-04 20:13 | 40.16919 | 33.03647 | 5238 ft | 194 kts | 37° |
| 2026-05-04 20:13 | 40.18000 | 33.04788 | 5565 ft | 208 kts | 37° |
| 2026-05-04 20:13 | 40.19179 | 33.06016 | 5870 ft | 224 kts | 37° |
| 2026-05-04 20:13 | 40.20278 | 33.07581 | 6082 ft | 248 kts | 62° |
| 2026-05-04 20:14 | 40.20664 | 33.09816 | 6705 ft | 257 kts | 90° |
| 2026-05-04 20:14 | 40.20184 | 33.12101 | 7188 ft | 273 kts | 119° |
| 2026-05-04 20:14 | 40.18996 | 33.14089 | 7747 ft | 281 kts | 128° |
| 2026-05-04 20:14 | 40.17775 | 33.16031 | 8462 ft | 282 kts | 127° |
| 2026-05-04 20:15 | 40.16537 | 33.18049 | 9196 ft | 283 kts | 127° |
| 2026-05-04 20:15 | 40.15315 | 33.20061 | 9889 ft | 284 kts | 126° |
| 2026-05-04 20:15 | 40.14088 | 33.22092 | 10433 ft | 291 kts | 126° |
| 2026-05-04 20:15 | 40.12813 | 33.24208 | 10717 ft | 306 kts | 126° |
| 2026-05-04 20:16 | 40.11472 | 33.26427 | 11121 ft | 316 kts | 126° |
| 2026-05-04 20:16 | 40.10108 | 33.28681 | 11725 ft | 319 kts | 126° |
| 2026-05-04 20:16 | 40.08736 | 33.30946 | 12345 ft | 321 kts | 126° |
| 2026-05-04 20:16 | 40.07357 | 33.33223 | 12747 ft | 323 kts | 126° |
| 2026-05-04 20:17 | 40.05951 | 33.35543 | 12843 ft | 324 kts | 126° |
| 2026-05-04 20:17 | 40.04556 | 33.37822 | 12845 ft | 324 kts | 128° |
| 2026-05-04 20:17 | 40.02782 | 33.39676 | 12827 ft | 329 kts | 152° |
| 2026-05-04 20:17 | 40.00568 | 33.40379 | 12842 ft | 335 kts | 176° |
| 2026-05-04 20:18 | 39.98260 | 33.39838 | 12850 ft | 339 kts | 201° |
| 2026-05-04 20:18 | 39.96236 | 33.38289 | 12862 ft | 341 kts | 212° |
| 2026-05-04 20:18 | 39.94257 | 33.36567 | 12860 ft | 340 kts | 212° |
| 2026-05-04 20:18 | 39.92281 | 33.34867 | 12856 ft | 340 kts | 212° |
| 2026-05-04 20:19 | 39.90300 | 33.33187 | 12862 ft | 339 kts | 211° |
| 2026-05-04 20:19 | 39.88305 | 33.31512 | 12862 ft | 339 kts | 211° |
| 2026-05-04 20:19 | 39.86322 | 33.29852 | 12863 ft | 339 kts | 211° |
| 2026-05-04 20:19 | 39.84357 | 33.28205 | 12860 ft | 339 kts | 211° |
| 2026-05-04 20:20 | 39.82371 | 33.26538 | 12864 ft | 339 kts | 211° |
| 2026-05-04 20:20 | 39.80394 | 33.24880 | 12858 ft | 339 kts | 211° |
| 2026-05-04 20:20 | 39.78394 | 33.23204 | 12858 ft | 339 kts | 212° |
| 2026-05-04 20:20 | 39.76433 | 33.21563 | 12861 ft | 339 kts | 212° |
| 2026-05-04 20:21 | 39.74450 | 33.19904 | 12859 ft | 339 kts | 212° |
| 2026-05-04 20:21 | 39.72465 | 33.18245 | 12863 ft | 339 kts | 212° |
| 2026-05-04 20:21 | 39.68507 | 33.14948 | 12860 ft | 338 kts | 212° |
| 2026-05-04 20:22 | 39.66528 | 33.13300 | 12863 ft | 338 kts | 212° |
| 2026-05-04 20:22 | 39.64542 | 33.11647 | 12863 ft | 338 kts | 212° |
| 2026-05-04 20:22 | 39.62552 | 33.09992 | 12863 ft | 338 kts | 212° |
| 2026-05-04 20:22 | 39.60569 | 33.08344 | 12860 ft | 338 kts | 212° |
| 2026-05-04 20:23 | 39.58579 | 33.06691 | 13018 ft | 344 kts | 212° |
| 2026-05-04 20:23 | 39.56563 | 33.05018 | 13644 ft | 344 kts | 212° |
| 2026-05-04 20:23 | 39.54538 | 33.03399 | 14287 ft | 344 kts | 209° |
| 2026-05-04 20:23 | 39.52426 | 33.01950 | 14847 ft | 346 kts | 205° |
| 2026-05-04 20:24 | 39.50278 | 33.00570 | 15371 ft | 349 kts | 205° |
| 2026-05-04 20:24 | 39.48069 | 32.99161 | 15894 ft | 352 kts | 205° |
| 2026-05-04 20:24 | 39.45894 | 32.97773 | 16422 ft | 354 kts | 205° |
| 2026-05-04 20:24 | 39.43677 | 32.96358 | 16933 ft | 357 kts | 206° |
| 2026-05-04 20:25 | 39.41449 | 32.94933 | 17421 ft | 359 kts | 205° |
| 2026-05-04 20:25 | 39.39178 | 32.93513 | 17904 ft | 362 kts | 201° |
| 2026-05-04 20:25 | 39.36775 | 32.92616 | 18342 ft | 363 kts | 187° |
| 2026-05-04 20:25 | 39.34253 | 32.92479 | 18804 ft | 363 kts | 174° |
| 2026-05-04 20:26 | 39.31757 | 32.92795 | 19250 ft | 365 kts | 172° |
| 2026-05-04 20:26 | 39.29213 | 32.93185 | 19670 ft | 368 kts | 171° |
| 2026-05-04 20:26 | 39.26678 | 32.93568 | 20105 ft | 371 kts | 172° |
| 2026-05-04 20:26 | 39.24097 | 32.93940 | 20558 ft | 373 kts | 172° |
| 2026-05-04 20:27 | 39.21488 | 32.94305 | 20992 ft | 375 kts | 172° |
| 2026-05-04 20:27 | 39.18920 | 32.94677 | 21407 ft | 377 kts | 172° |
| 2026-05-04 20:27 | 39.16317 | 32.95068 | 21831 ft | 379 kts | 172° |
| 2026-05-04 20:27 | 39.13659 | 32.95467 | 22239 ft | 381 kts | 172° |
| 2026-05-04 20:28 | 39.11047 | 32.95858 | 22608 ft | 384 kts | 172° |
| 2026-05-04 20:28 | 39.08385 | 32.96260 | 22994 ft | 386 kts | 172° |
| 2026-05-04 20:28 | 39.05715 | 32.96659 | 23372 ft | 388 kts | 172° |
| 2026-05-04 20:28 | 39.03039 | 32.97058 | 23723 ft | 390 kts | 172° |
| 2026-05-04 20:29 | 39.00326 | 32.97464 | 24073 ft | 393 kts | 172° |
| 2026-05-04 20:29 | 38.97594 | 32.97872 | 24420 ft | 394 kts | 172° |
| 2026-05-04 20:29 | 38.94875 | 32.98278 | 24709 ft | 396 kts | 172° |
| 2026-05-04 20:29 | 38.92115 | 32.98690 | 24960 ft | 400 kts | 172° |
| 2026-05-04 20:30 | 38.89363 | 32.99099 | 25223 ft | 403 kts | 172° |
| 2026-05-04 20:30 | 38.86539 | 32.99520 | 25499 ft | 405 kts | 172° |
| 2026-05-04 20:30 | 38.83746 | 32.99935 | 25739 ft | 408 kts | 173° |
| 2026-05-04 20:30 | 38.80909 | 33.00355 | 25982 ft | 410 kts | 173° |
| 2026-05-04 20:31 | 38.78080 | 33.00774 | 26187 ft | 412 kts | 173° |
| 2026-05-04 20:31 | 38.75226 | 33.01197 | 26446 ft | 413 kts | 173° |
| 2026-05-04 20:31 | 38.72372 | 33.01620 | 26659 ft | 416 kts | 173° |
| 2026-05-04 20:31 | 38.69500 | 33.02054 | 26824 ft | 419 kts | 173° |
| 2026-05-04 20:32 | 38.66594 | 33.02477 | 27018 ft | 421 kts | 173° |
| 2026-05-04 20:32 | 38.63689 | 33.02903 | 27226 ft | 424 kts | 173° |
| 2026-05-04 20:32 | 38.60723 | 33.03340 | 27433 ft | 426 kts | 174° |
| 2026-05-04 20:32 | 38.57788 | 33.03773 | 27636 ft | 428 kts | 174° |
| 2026-05-04 20:33 | 38.54821 | 33.04211 | 27828 ft | 431 kts | 174° |
| 2026-05-04 20:33 | 38.51841 | 33.04650 | 28012 ft | 433 kts | 174° |
| 2026-05-04 20:33 | 38.48863 | 33.05089 | 28219 ft | 435 kts | 174° |
| 2026-05-04 20:33 | 38.45843 | 33.05532 | 28427 ft | 436 kts | 174° |
| 2026-05-04 20:34 | 38.42851 | 33.05971 | 28628 ft | 438 kts | 174° |
| 2026-05-04 20:34 | 38.39815 | 33.06417 | 28847 ft | 439 kts | 174° |
| 2026-05-04 20:34 | 38.36752 | 33.06866 | 29073 ft | 440 kts | 175° |
| 2026-05-04 20:34 | 38.33767 | 33.07303 | 29514 ft | 434 kts | 175° |
| 2026-05-04 20:35 | 38.30780 | 33.07743 | 29973 ft | 428 kts | 175° |
| 2026-05-04 20:35 | 38.27813 | 33.08176 | 30233 ft | 428 kts | 175° |
| 2026-05-04 20:35 | 38.24870 | 33.08603 | 30407 ft | 431 kts | 175° |
| 2026-05-04 20:35 | 38.21883 | 33.09038 | 30594 ft | 433 kts | 175° |
| 2026-05-04 20:36 | 38.18863 | 33.09480 | 30801 ft | 435 kts | 175° |
| 2026-05-04 20:36 | 38.15871 | 33.09917 | 30905 ft | 436 kts | 175° |
| 2026-05-04 20:36 | 38.09862 | 33.10793 | 30912 ft | 435 kts | 176° |
| 2026-05-04 20:37 | 38.03840 | 33.11669 | 30915 ft | 434 kts | 176° |
| 2026-05-04 20:37 | 37.97846 | 33.12557 | 30916 ft | 434 kts | 176° |
| 2026-05-04 20:38 | 37.91853 | 33.13463 | 30923 ft | 434 kts | 176° |
| 2026-05-04 20:38 | 37.85829 | 33.14373 | 30930 ft | 434 kts | 176° |
| 2026-05-04 20:39 | 37.79824 | 33.15278 | 30930 ft | 434 kts | 176° |
| 2026-05-04 20:39 | 37.73829 | 33.16178 | 30929 ft | 428 kts | 176° |
| 2026-05-04 20:40 | 37.68033 | 33.17053 | 30941 ft | 420 kts | 176° |
| 2026-05-04 20:40 | 37.62235 | 33.17922 | 30946 ft | 419 kts | 177° |
| 2026-05-04 20:41 | 37.56412 | 33.18791 | 30940 ft | 419 kts | 177° |
| 2026-05-04 20:41 | 37.50630 | 33.19651 | 30938 ft | 419 kts | 177° |
| 2026-05-04 20:42 | 37.44835 | 33.20515 | 30950 ft | 419 kts | 177° |
| 2026-05-04 20:42 | 37.38996 | 33.21382 | 30962 ft | 430 kts | 177° |
| 2026-05-04 20:43 | 37.32915 | 33.22279 | 30741 ft | 452 kts | 177° |
| 2026-05-04 20:43 | 37.29774 | 33.22744 | 30509 ft | 457 kts | 177° |
| 2026-05-04 20:43 | 37.26607 | 33.23218 | 30278 ft | 457 kts | 177° |
| 2026-05-04 20:44 | 37.23472 | 33.23687 | 30049 ft | 457 kts | 178° |
| 2026-05-04 20:44 | 37.20289 | 33.24161 | 29757 ft | 457 kts | 178° |
| 2026-05-04 20:44 | 37.17161 | 33.24624 | 29380 ft | 454 kts | 178° |
| 2026-05-04 20:44 | 37.14027 | 33.25092 | 28909 ft | 452 kts | 178° |
| 2026-05-04 20:45 | 37.10914 | 33.25553 | 28420 ft | 449 kts | 178° |
| 2026-05-04 20:45 | 37.07825 | 33.26009 | 27964 ft | 446 kts | 178° |
| 2026-05-04 20:45 | 37.04761 | 33.26459 | 27498 ft | 443 kts | 178° |
| 2026-05-04 20:45 | 37.01725 | 33.26908 | 27043 ft | 440 kts | 178° |
| 2026-05-04 20:46 | 36.98684 | 33.27356 | 26592 ft | 437 kts | 178° |
| 2026-05-04 20:46 | 36.95672 | 33.27800 | 26129 ft | 433 kts | 178° |
| 2026-05-04 20:46 | 36.92669 | 33.28241 | 25675 ft | 430 kts | 178° |
| 2026-05-04 20:46 | 36.89702 | 33.28574 | 25186 ft | 422 kts | 186° |
| 2026-05-04 20:47 | 36.86896 | 33.27866 | 24709 ft | 401 kts | 209° |
| 2026-05-04 20:47 | 36.84615 | 33.25991 | 24196 ft | 385 kts | 228° |
| 2026-05-04 20:47 | 36.82994 | 33.23425 | 23683 ft | 376 kts | 240° |
| 2026-05-04 20:47 | 36.81543 | 33.20726 | 23231 ft | 372 kts | 239° |
| 2026-05-04 20:48 | 36.80101 | 33.18079 | 22765 ft | 369 kts | 239° |
| 2026-05-04 20:48 | 36.78649 | 33.15436 | 22291 ft | 367 kts | 239° |
| 2026-05-04 20:48 | 36.77206 | 33.12828 | 21802 ft | 364 kts | 239° |
| 2026-05-04 20:48 | 36.75779 | 33.10253 | 21347 ft | 361 kts | 239° |
| 2026-05-04 20:49 | 36.74351 | 33.07681 | 20881 ft | 359 kts | 239° |
| 2026-05-04 20:49 | 36.72928 | 33.05123 | 20421 ft | 357 kts | 239° |
| 2026-05-04 20:49 | 36.71509 | 33.02577 | 19947 ft | 355 kts | 239° |
| 2026-05-04 20:49 | 36.70107 | 33.00066 | 19490 ft | 352 kts | 238° |
| 2026-05-04 20:50 | 36.68712 | 32.97567 | 19030 ft | 350 kts | 238° |
| 2026-05-04 20:50 | 36.67575 | 32.95535 | 18658 ft | 348 kts | 238° |
| 2026-05-04 20:50 | 36.66229 | 32.93133 | 18234 ft | 346 kts | 238° |
| 2026-05-04 20:50 | 36.64851 | 32.90670 | 17817 ft | 344 kts | 238° |
| 2026-05-04 20:51 | 36.63495 | 32.88246 | 17393 ft | 341 kts | 238° |
| 2026-05-04 20:51 | 36.62132 | 32.85814 | 16946 ft | 339 kts | 238° |
| 2026-05-04 20:51 | 36.60778 | 32.83405 | 16522 ft | 337 kts | 238° |
| 2026-05-04 20:51 | 36.59441 | 32.81020 | 16094 ft | 335 kts | 238° |
| 2026-05-04 20:52 | 36.58110 | 32.78650 | 15670 ft | 332 kts | 238° |
| 2026-05-04 20:52 | 36.56789 | 32.76301 | 15247 ft | 330 kts | 238° |
| 2026-05-04 20:52 | 36.55471 | 32.73960 | 14820 ft | 328 kts | 238° |
| 2026-05-04 20:52 | 36.54163 | 32.71638 | 14399 ft | 326 kts | 238° |
| 2026-05-04 20:53 | 36.52847 | 32.69302 | 13989 ft | 323 kts | 238° |
| 2026-05-04 20:53 | 36.51592 | 32.67018 | 13580 ft | 321 kts | 240° |
| 2026-05-04 20:53 | 36.50535 | 32.64604 | 13166 ft | 317 kts | 247° |
| 2026-05-04 20:53 | 36.49720 | 32.62072 | 12739 ft | 314 kts | 252° |
| 2026-05-04 20:54 | 36.49021 | 32.59530 | 12341 ft | 312 kts | 254° |
| 2026-05-04 20:54 | 36.48338 | 32.56988 | 11947 ft | 310 kts | 254° |
| 2026-05-04 20:54 | 36.47650 | 32.54430 | 11550 ft | 309 kts | 254° |
| 2026-05-04 20:54 | 36.46971 | 32.51907 | 11154 ft | 308 kts | 255° |
| 2026-05-04 20:55 | 36.46288 | 32.49391 | 10751 ft | 306 kts | 255° |
| 2026-05-04 20:55 | 36.45610 | 32.46895 | 10385 ft | 304 kts | 254° |
| 2026-05-04 20:55 | 36.44947 | 32.44464 | 10243 ft | 292 kts | 254° |
| 2026-05-04 20:55 | 36.44305 | 32.42121 | 10144 ft | 280 kts | 255° |
| 2026-05-04 20:56 | 36.43688 | 32.39867 | 10031 ft | 268 kts | 255° |
| 2026-05-04 20:56 | 36.43093 | 32.37684 | 9740 ft | 267 kts | 255° |
| 2026-05-04 20:56 | 36.42503 | 32.35511 | 9394 ft | 266 kts | 255° |
| 2026-05-04 20:56 | 36.41907 | 32.33328 | 9055 ft | 265 kts | 254° |
| 2026-05-04 20:57 | 36.41313 | 32.31159 | 8715 ft | 264 kts | 253° |
| 2026-05-04 20:57 | 36.40725 | 32.29013 | 8452 ft | 260 kts | 253° |
| 2026-05-04 20:57 | 36.40149 | 32.26917 | 8253 ft | 252 kts | 253° |
| 2026-05-04 20:57 | 36.39604 | 32.24867 | 8081 ft | 254 kts | 256° |
| 2026-05-04 20:58 | 36.39191 | 32.22709 | 7862 ft | 256 kts | 262° |
| 2026-05-04 20:58 | 36.38917 | 32.20550 | 7575 ft | 252 kts | 263° |
| 2026-05-04 20:58 | 36.38665 | 32.18416 | 7277 ft | 250 kts | 263° |
| 2026-05-04 20:58 | 36.38415 | 32.16291 | 7013 ft | 246 kts | 263° |
| 2026-05-04 20:59 | 36.38168 | 32.14209 | 6703 ft | 244 kts | 263° |
| 2026-05-04 20:59 | 36.37923 | 32.12141 | 6376 ft | 242 kts | 263° |
| 2026-05-04 20:59 | 36.37678 | 32.10104 | 6089 ft | 239 kts | 263° |
| 2026-05-04 20:59 | 36.37434 | 32.08085 | 5809 ft | 235 kts | 263° |
| 2026-05-04 21:00 | 36.37146 | 32.06104 | 5526 ft | 232 kts | 253° |
| 2026-05-04 21:00 | 36.36226 | 32.04496 | 5208 ft | 232 kts | 215° |
| 2026-05-04 21:00 | 36.34744 | 32.03835 | 4913 ft | 230 kts | 181° |
| 2026-05-04 21:00 | 36.33152 | 32.04060 | 4651 ft | 226 kts | 169° |
| 2026-05-04 21:01 | 36.31642 | 32.04398 | 4444 ft | 218 kts | 170° |
| 2026-05-04 21:01 | 36.30156 | 32.04709 | 4156 ft | 213 kts | 170° |
| 2026-05-04 21:01 | 36.28698 | 32.04998 | 3861 ft | 208 kts | 169° |
| 2026-05-04 21:01 | 36.27410 | 32.05658 | 3567 ft | 198 kts | 133° |
| 2026-05-04 21:02 | 36.26917 | 32.07118 | 3377 ft | 186 kts | 83° |
| 2026-05-04 21:02 | 36.27224 | 32.08651 | 3286 ft | 182 kts | 71° |
| 2026-05-04 21:02 | 36.27507 | 32.10164 | 3029 ft | 176 kts | 76° |
| 2026-05-04 21:02 | 36.27713 | 32.11637 | 2738 ft | 170 kts | 77° |
| 2026-05-04 21:03 | 36.27890 | 32.13044 | 2504 ft | 163 kts | 77° |
| 2026-05-04 21:03 | 36.28059 | 32.14429 | 2304 ft | 162 kts | 77° |
| 2026-05-04 21:03 | 36.28219 | 32.15766 | 2071 ft | 150 kts | 77° |
| 2026-05-04 21:03 | 36.28365 | 32.16996 | 1964 ft | 145 kts | 76° |
| 2026-05-04 21:04 | 36.28516 | 32.18228 | 1785 ft | 143 kts | 76° |
| 2026-05-04 21:04 | 36.28664 | 32.19438 | 1610 ft | 142 kts | 77° |
| 2026-05-04 21:04 | 36.28811 | 32.20650 | 1426 ft | 142 kts | 78° |
| 2026-05-04 21:04 | 36.28958 | 32.21866 | 1233 ft | 141 kts | 78° |
| 2026-05-04 21:05 | 36.29102 | 32.23058 | 1046 ft | 141 kts | 79° |
| 2026-05-04 21:05 | 36.29245 | 32.24262 | 792 ft | 141 kts | 81° |
| 2026-05-04 21:05 | 36.29383 | 32.25463 | 531 ft | 140 kts | 81° |
| 2026-05-04 21:05 | 36.29523 | 32.26653 | 296 ft | 139 kts | 82° |
| 2026-05-04 21:06 | 36.29669 | 32.27837 | 150 ft | 138 kts | 82° |
| 2026-05-04 21:06 | 36.29804 | 32.28999 | 56 ft | 128 kts | 82° |
| 2026-05-04 21:06 | 36.29887 | 32.29722 | 80 ft | 41 kts | 81° |
| 2026-05-04 21:06 | 36.29898 | 32.29808 | 83 ft | 1 kts | 81° |
| 2026-05-04 21:07 | 36.29907 | 32.29883 | 86 ft | 15 kts | 82° |
| 2026-05-04 21:07 | 36.29927 | 32.30047 | 93 ft | 18 kts | 81° |
| 2026-05-04 21:07 | 36.29930 | 32.30132 | 96 ft | 5 kts | 120° |
| 2026-05-04 21:07 | 36.29903 | 32.30149 | 97 ft | 4 kts | 167° |
| 2026-05-04 21:08 | 36.29850 | 32.30163 | 97 ft | 6 kts | 155° |
| 2026-05-04 21:08 | 36.29833 | 32.30203 | 99 ft | 3 kts | 92° |
| 2026-05-04 21:08 | 36.29836 | 32.30244 | 101 ft | 6 kts | 82° |
| 2026-05-04 21:08 | 36.29844 | 32.30313 | 103 ft | 7 kts | 81° |
| 2026-05-04 21:09 | 36.29849 | 32.30354 | 105 ft | 0 kts | 83° |
| 2026-05-04 21:09 | 36.29842 | 32.30376 | 106 ft | 3 kts | 142° |
| 2026-05-04 21:09 | 36.29819 | 32.30382 | 106 ft | 2 kts | 173° |
| 2026-05-04 21:09 | 36.29805 | 32.30384 | 106 ft | 1 kts | 169° |
| 2026-05-04 21:10 | 36.29805 | 32.30385 | 106 ft | 0 kts | 169° |